Time;durP1;ratioP1;P1;durP2;ratioP2;P2;SDS_P1;SDS_P2;PMS_P1;PMS_P2;Temp;Humidity;BMP_temperature;BMP_pressure;BME280_temperature;BME280_humidity;BME280_pressure;Samples;Min_cycle;Max_cycle;Signal;HPM_P1;HPM_P2
2021/11/04 00:02:16;;;;;;;40.00;35.73;;;7.10;99.90;;;;;;5086106;28;20565;-80
2021/11/04 00:04:42;;;;;;;42.08;36.70;;;7.10;99.90;;;;;;5083765;28;20524;-80
2021/11/04 00:07:11;;;;;;;39.63;35.35;;;7.10;99.90;;;;;;5085919;28;20965;-79
2021/11/04 00:09:37;;;;;;;40.85;35.55;;;7.10;99.90;;;;;;5086577;28;20387;-80
2021/11/04 00:12:03;;;;;;;42.42;35.72;;;7.10;99.90;;;;;;5085937;28;20365;-80
2021/11/04 00:14:29;;;;;;;41.58;37.08;;;7.10;99.90;;;;;;5083191;28;20495;-80
2021/11/04 00:16:55;;;;;;;40.50;36.13;;;7.10;99.90;;;;;;5085929;28;20466;-80
2021/11/04 00:19:20;;;;;;;40.45;36.10;;;7.00;99.90;;;;;;5084871;28;20409;-80
2021/11/04 00:21:46;;;;;;;40.37;36.03;;;7.00;99.90;;;;;;5082373;28;20479;-81
2021/11/04 00:24:12;;;;;;;40.47;36.17;;;7.10;99.90;;;;;;5085787;28;20376;-80
2021/11/04 00:26:37;;;;;;;39.63;35.40;;;7.10;99.90;;;;;;5084359;28;20901;-79
2021/11/04 00:29:03;;;;;;;40.23;35.83;;;7.10;99.90;;;;;;5085465;28;20396;-80
2021/11/04 00:31:29;;;;;;;41.00;36.63;;;7.10;99.90;;;;;;5085560;28;20391;-80
2021/11/04 00:33:56;;;;;;;39.47;35.22;;;7.10;99.90;;;;;;5085780;28;21260;-80
2021/11/04 00:36:22;;;;;;;40.83;35.92;;;7.20;99.90;;;;;;5084708;28;20415;-81
2021/11/04 00:38:49;;;;;;;39.60;35.40;;;7.10;99.90;;;;;;5085525;28;20470;-80
2021/11/04 00:41:16;;;;;;;39.55;35.33;;;7.10;99.90;;;;;;5085411;28;20392;-80
2021/11/04 00:43:42;;;;;;;39.17;34.97;;;7.00;99.90;;;;;;5085512;28;20420;-80
2021/11/04 00:46:08;;;;;;;38.83;34.72;;;7.10;99.90;;;;;;5085637;28;20476;-81
2021/11/04 00:48:34;;;;;;;39.00;34.85;;;7.10;99.90;;;;;;5084317;28;20487;-80
2021/11/04 00:51:00;;;;;;;36.60;32.72;;;7.10;99.90;;;;;;5085621;28;20461;-80
2021/11/04 00:53:26;;;;;;;39.22;35.15;;;7.10;99.90;;;;;;5083278;28;20387;-80
2021/11/04 00:55:51;;;;;;;38.35;34.25;;;7.20;99.90;;;;;;5084473;28;20944;-80
2021/11/04 00:58:17;;;;;;;38.22;34.22;;;7.20;99.90;;;;;;5084597;28;20908;-80
2021/11/04 01:00:44;;;;;;;38.83;34.35;;;7.20;99.90;;;;;;5085601;28;20368;-80
2021/11/04 01:03:10;;;;;;;38.15;34.17;;;7.20;99.90;;;;;;5084527;28;20395;-79
2021/11/04 01:05:36;;;;;;;38.30;34.28;;;7.20;99.90;;;;;;5084458;28;20396;-80
2021/11/04 01:08:02;;;;;;;37.28;33.38;;;7.30;99.90;;;;;;5084817;28;20869;-80
2021/11/04 01:10:28;;;;;;;37.38;33.30;;;7.20;99.90;;;;;;5084896;28;20445;-80
2021/11/04 01:12:53;;;;;;;38.47;34.42;;;7.20;99.90;;;;;;5085176;28;20384;-80
2021/11/04 01:15:19;;;;;;;37.97;34.03;;;7.20;99.90;;;;;;5083632;28;20411;-80
2021/11/04 01:17:47;;;;;;;38.17;34.08;;;7.20;99.90;;;;;;5085110;28;20395;-80
2021/11/04 01:20:13;;;;;;;37.55;33.63;;;7.30;99.90;;;;;;5082886;28;20423;-80
2021/11/04 01:22:39;;;;;;;38.33;34.15;;;7.30;99.90;;;;;;5084538;28;20392;-80
2021/11/04 01:25:05;;;;;;;38.38;34.38;;;7.20;99.90;;;;;;5085056;28;20904;-81
2021/11/04 01:27:30;;;;;;;42.22;37.78;;;7.20;99.90;;;;;;5084715;28;20968;-80
2021/11/04 01:29:56;;;;;;;41.78;37.33;;;7.10;99.90;;;;;;5082669;28;20495;-80
2021/11/04 01:32:23;;;;;;;41.37;36.97;;;7.10;99.90;;;;;;5084761;28;20468;-80
2021/11/04 01:34:48;;;;;;;41.15;36.85;;;7.10;99.90;;;;;;5084793;28;20457;-79
2021/11/04 01:37:14;;;;;;;41.80;37.40;;;7.20;99.90;;;;;;5084566;28;20408;-79
2021/11/04 01:39:40;;;;;;;41.95;37.60;;;7.20;99.90;;;;;;5084831;28;20380;-79
2021/11/04 01:42:06;;;;;;;43.47;38.90;;;7.10;99.90;;;;;;5085023;28;20495;-79
2021/11/04 01:44:31;;;;;;;42.25;37.67;;;7.10;99.90;;;;;;5084403;28;20380;-80
2021/11/04 01:46:57;;;;;;;41.87;37.53;;;7.10;99.90;;;;;;5084161;28;21182;-80
2021/11/04 01:49:23;;;;;;;42.97;38.27;;;7.10;99.90;;;;;;5082770;28;20395;-80
2021/11/04 01:51:49;;;;;;;41.97;37.47;;;7.10;99.90;;;;;;5083933;28;20909;-80
2021/11/04 01:54:14;;;;;;;43.07;38.57;;;7.20;99.90;;;;;;5084671;28;20749;-79
2021/11/04 01:56:41;;;;;;;43.77;39.10;;;7.20;99.90;;;;;;5084587;28;20416;-80
2021/11/04 01:59:07;;;;;;;43.88;39.08;;;7.20;99.90;;;;;;5083100;28;20384;-79
2021/11/04 02:01:33;;;;;;;44.72;39.88;;;7.20;99.90;;;;;;5084400;28;20387;-79
2021/11/04 02:04:14;;;;;;;45.03;40.22;;;7.10;99.90;;;;;;5082858;28;20392;-79
2021/11/04 02:06:59;;;;;;;46.20;41.30;;;7.10;99.90;;;;;;5082883;28;20901;-79
2021/11/04 02:09:28;;;;;;;46.35;41.40;;;7.10;99.90;;;;;;5084390;28;20422;-79
2021/11/04 02:11:56;;;;;;;47.17;41.50;;;7.10;99.90;;;;;;5084662;28;20736;-80
2021/11/04 02:14:36;;;;;;;48.55;42.72;;;7.10;99.90;;;;;;5083624;28;21015;-80
2021/11/04 02:17:02;;;;;;;49.20;43.88;;;7.00;99.90;;;;;;5083951;28;20380;-79
2021/11/04 02:19:49;;;;;;;49.13;43.75;;;6.90;99.90;;;;;;5082676;28;20396;-79
2021/11/04 02:22:26;;;;;;;51.88;46.25;;;7.00;99.90;;;;;;5067856;28;20404;-79
2021/11/04 02:25:29;;;;;;;53.10;47.30;;;6.90;99.90;;;;;;5083159;28;20384;-80
2021/11/04 02:28:02;;;;;;;52.92;47.05;;;6.90;99.90;;;;;;5003183;28;20480;-80
2021/11/04 02:30:29;;;;;;;58.95;49.63;;;6.90;99.90;;;;;;5053958;28;20386;-79
2021/11/04 02:32:56;;;;;;;55.90;49.78;;;6.80;99.90;;;;;;5076074;28;20406;-80
2021/11/04 02:35:22;;;;;;;59.78;51.70;;;6.80;99.90;;;;;;5087856;28;20731;-79
2021/11/04 02:37:51;;;;;;;60.53;51.63;;;6.80;99.90;;;;;;5087358;28;20916;-80
2021/11/04 02:40:17;;;;;;;61.55;52.63;;;6.70;99.90;;;;;;5087413;28;20724;-80
2021/11/04 02:42:43;;;;;;;62.22;52.53;;;6.80;99.90;;;;;;5086872;28;20376;-80
2021/11/04 02:45:10;;;;;;;63.17;53.20;;;6.80;99.90;;;;;;5087503;28;20384;-80
2021/11/04 02:47:38;;;;;;;64.07;54.88;;;6.70;99.90;;;;;;5086079;28;20384;-79
2021/11/04 02:50:06;;;;;;;63.10;53.50;;;6.80;99.90;;;;;;5087990;28;20387;-80
2021/11/04 02:52:32;;;;;;;65.72;55.40;;;6.80;99.90;;;;;;5087210;28;20396;-81
2021/11/04 02:55:04;;;;;;;64.88;55.35;;;6.80;99.90;;;;;;5087140;28;20401;-79
2021/11/04 02:57:31;;;;;;;65.30;55.30;;;6.80;99.90;;;;;;5087964;28;20388;-79
2021/11/04 02:59:57;;;;;;;66.47;55.88;;;6.90;99.90;;;;;;5087167;28;20424;-80
2021/11/04 03:02:23;;;;;;;66.30;54.78;;;6.80;99.90;;;;;;5086123;28;20416;-79
2021/11/04 03:04:49;;;;;;;68.95;56.85;;;6.80;99.90;;;;;;5085530;28;20503;-78
2021/11/04 03:07:15;;;;;;;71.50;58.33;;;6.80;99.90;;;;;;5087466;28;20625;-79
2021/11/04 03:09:41;;;;;;;71.53;57.95;;;6.70;99.90;;;;;;5087330;28;20941;-79
2021/11/04 03:12:08;;;;;;;73.27;56.90;;;6.80;99.90;;;;;;5087250;28;20395;-80
2021/11/04 03:14:34;;;;;;;70.45;57.65;;;6.80;99.90;;;;;;5084985;28;20414;-81
2021/11/04 03:17:03;;;;;;;70.72;57.67;;;6.80;99.90;;;;;;5087136;28;20388;-79
2021/11/04 03:19:29;;;;;;;68.55;56.00;;;6.80;99.90;;;;;;5087311;28;20813;-79
2021/11/04 03:21:58;;;;;;;75.37;59.17;;;6.80;99.90;;;;;;5086545;28;20396;-79
2021/11/04 03:24:26;;;;;;;68.85;56.08;;;6.80;99.90;;;;;;5086624;28;20384;-79
2021/11/04 03:26:59;;;;;;;72.40;57.85;;;6.80;99.90;;;;;;5085338;28;20376;-79
2021/11/04 03:29:27;;;;;;;70.65;57.95;;;6.80;99.90;;;;;;5086470;27;20391;-79
2021/11/04 03:31:54;;;;;;;72.07;58.50;;;6.90;99.90;;;;;;5086689;28;20412;-80
2021/11/04 03:34:20;;;;;;;68.97;56.80;;;6.90;99.90;;;;;;5086134;28;20527;-80
2021/11/04 03:36:49;;;;;;;71.13;58.05;;;7.00;99.90;;;;;;5087147;28;20389;-79
2021/11/04 03:39:18;;;;;;;68.88;57.28;;;7.00;99.90;;;;;;5086824;28;20384;-79
2021/11/04 03:41:44;;;;;;;70.88;58.05;;;7.00;99.90;;;;;;5084926;28;20399;-79
2021/11/04 03:44:10;;;;;;;69.43;57.20;;;7.00;99.90;;;;;;5086130;28;20564;-80
2021/11/04 03:46:36;;;;;;;68.80;56.88;;;7.00;99.90;;;;;;5085552;28;21044;-79
2021/11/04 03:49:03;;;;;;;67.75;57.50;;;7.10;99.90;;;;;;5084934;28;20384;-79
2021/11/04 03:51:31;;;;;;;72.18;57.92;;;7.10;99.90;;;;;;5086349;28;20396;-80
2021/11/04 03:53:56;;;;;;;68.60;57.75;;;7.00;99.90;;;;;;5085598;28;20495;-80
2021/11/04 03:56:22;;;;;;;72.18;58.03;;;7.10;99.90;;;;;;5085959;28;20380;-80
2021/11/04 03:58:48;;;;;;;71.00;58.67;;;7.10;99.90;;;;;;5084838;28;20958;-80
2021/11/04 04:01:14;;;;;;;68.70;56.22;;;7.10;99.90;;;;;;5086335;28;20396;-80
2021/11/04 04:03:42;;;;;;;67.68;56.70;;;7.10;99.90;;;;;;5085344;28;21375;-79
2021/11/04 04:06:09;;;;;;;67.53;56.65;;;7.10;99.90;;;;;;5086578;28;20373;-80
2021/11/04 04:08:39;;;;;;;72.18;59.15;;;7.10;99.90;;;;;;5085647;28;20408;-79
2021/11/04 04:11:05;;;;;;;75.28;59.67;;;7.20;99.90;;;;;;5084618;28;20424;-80
2021/11/04 04:13:31;;;;;;;74.50;60.95;;;7.20;99.90;;;;;;5085330;28;20384;-79
2021/11/04 04:15:57;;;;;;;73.63;59.60;;;7.10;99.90;;;;;;5084423;28;20457;-79
2021/11/04 04:18:23;;;;;;;66.88;56.72;;;7.10;99.90;;;;;;5085997;28;20537;-79
2021/11/04 04:20:50;;;;;;;69.47;57.03;;;7.20;99.90;;;;;;5084572;28;20476;-79
2021/11/04 04:23:17;;;;;;;73.28;59.85;;;7.30;99.90;;;;;;5083341;28;20415;-80
2021/11/04 04:25:44;;;;;;;68.70;56.38;;;7.20;99.90;;;;;;5086105;28;21152;-79
2021/11/04 04:28:09;;;;;;;70.72;58.05;;;7.20;99.90;;;;;;5085650;28;20421;-79
2021/11/04 04:30:35;;;;;;;70.53;59.70;;;7.20;99.90;;;;;;5084058;28;20384;-80
2021/11/04 04:33:01;;;;;;;70.57;59.50;;;7.20;99.90;;;;;;5085962;28;20400;-80
2021/11/04 04:35:27;;;;;;;71.43;59.80;;;7.10;99.90;;;;;;5085815;28;20407;-79
2021/11/04 04:37:52;;;;;;;74.25;58.40;;;7.10;99.90;;;;;;5085355;28;20420;-79
2021/11/04 04:40:18;;;;;;;73.97;60.17;;;7.10;99.90;;;;;;5084157;28;20387;-80
2021/11/04 04:42:44;;;;;;;77.00;61.53;;;7.00;99.90;;;;;;5084003;28;21131;-79
2021/11/04 04:45:11;;;;;;;72.23;59.87;;;7.00;99.90;;;;;;5085853;28;20380;-79
2021/11/04 04:47:37;;;;;;;73.45;58.95;;;7.10;99.90;;;;;;5085457;28;20387;-81
2021/11/04 04:50:04;;;;;;;76.45;61.15;;;7.20;99.90;;;;;;5084356;28;20392;-80
2021/11/04 04:52:30;;;;;;;73.05;59.15;;;7.10;99.90;;;;;;5084331;28;20412;-80
2021/11/04 04:54:56;;;;;;;74.15;59.63;;;7.00;99.90;;;;;;5083544;28;20408;-79
2021/11/04 04:57:23;;;;;;;71.97;59.83;;;7.00;99.90;;;;;;5083704;28;20415;-79
2021/11/04 04:59:54;;;;;;;74.77;60.80;;;7.10;99.90;;;;;;5083309;28;20396;-79
2021/11/04 05:02:20;;;;;;;76.97;61.55;;;7.10;99.90;;;;;;5083708;28;20470;-79
2021/11/04 05:04:45;;;;;;;74.32;59.85;;;7.10;99.90;;;;;;5085112;28;20388;-79
2021/11/04 05:07:11;;;;;;;75.45;60.85;;;7.00;99.90;;;;;;5084976;28;20365;-79
2021/11/04 05:09:37;;;;;;;76.47;62.20;;;7.00;99.90;;;;;;5085249;28;20420;-79
2021/11/04 05:12:03;;;;;;;75.17;59.73;;;7.00;99.90;;;;;;5085495;28;20380;-79
2021/11/04 05:14:28;;;;;;;72.35;59.22;;;7.10;99.90;;;;;;5085040;28;20928;-79
2021/11/04 05:16:54;;;;;;;73.60;59.80;;;7.20;99.90;;;;;;5083600;28;21133;-79
2021/11/04 05:19:20;;;;;;;76.95;61.47;;;7.10;99.90;;;;;;5085215;28;20388;-80
2021/11/04 05:21:45;;;;;;;80.87;63.57;;;7.10;99.90;;;;;;5084890;28;20388;-80
2021/11/04 05:24:11;;;;;;;76.03;60.77;;;7.00;99.90;;;;;;5084699;28;20397;-80
2021/11/04 05:26:37;;;;;;;78.20;62.03;;;7.00;99.90;;;;;;5084966;28;20784;-80
2021/11/04 05:29:03;;;;;;;79.70;63.40;;;7.10;99.90;;;;;;5084705;28;20422;-79
2021/11/04 05:31:29;;;;;;;79.13;63.33;;;7.00;99.90;;;;;;5082976;28;20469;-79
2021/11/04 05:33:54;;;;;;;81.80;64.30;;;7.10;99.90;;;;;;5084952;28;20457;-80
2021/11/04 05:36:21;;;;;;;80.25;62.85;;;7.10;99.90;;;;;;5085029;28;20469;-80
2021/11/04 05:38:47;;;;;;;81.35;63.03;;;7.20;99.90;;;;;;5084383;28;20403;-79
2021/11/04 05:41:12;;;;;;;80.00;63.92;;;7.20;99.90;;;;;;5084532;28;20380;-79
2021/11/04 05:43:38;;;;;;;77.53;61.33;;;7.20;99.90;;;;;;5083039;28;20450;-80
2021/11/04 05:46:04;;;;;;;80.17;62.20;;;7.20;99.90;;;;;;5084533;28;20499;-81
2021/11/04 05:48:29;;;;;;;78.13;63.55;;;7.30;99.90;;;;;;5082503;28;20372;-79
2021/11/04 05:50:56;;;;;;;82.15;64.43;;;7.30;99.90;;;;;;5084647;28;20397;-78
2021/11/04 05:53:23;;;;;;;82.65;64.88;;;7.30;99.90;;;;;;5084842;28;20394;-80
2021/11/04 05:55:49;;;;;;;84.32;65.35;;;7.20;99.90;;;;;;5084736;28;20415;-80
2021/11/04 05:58:15;;;;;;;85.63;66.28;;;7.20;99.90;;;;;;5083002;28;20399;-81
2021/11/04 06:00:41;;;;;;;84.40;65.95;;;7.20;99.90;;;;;;5084543;28;20874;-80
2021/11/04 06:03:07;;;;;;;82.38;65.25;;;7.20;99.90;;;;;;5084609;28;20392;-80
2021/11/04 06:05:32;;;;;;;89.18;67.78;;;7.20;99.90;;;;;;5084255;28;20388;-80
2021/11/04 06:07:58;;;;;;;87.93;67.80;;;7.20;99.90;;;;;;5083877;28;20392;-79
2021/11/04 06:10:23;;;;;;;87.23;67.13;;;7.20;99.90;;;;;;5087120;28;20388;-79
2021/11/04 06:12:49;;;;;;;85.80;66.05;;;7.20;99.90;;;;;;5088242;28;20412;-80
2021/11/04 06:15:15;;;;;;;89.00;68.00;;;7.20;99.90;;;;;;5088725;28;20423;-79
2021/11/04 06:17:40;;;;;;;87.57;68.97;;;7.20;99.90;;;;;;5087868;28;20450;-79
2021/11/04 06:20:07;;;;;;;87.85;68.85;;;7.30;99.90;;;;;;5088490;28;20463;-80
2021/11/04 06:22:32;;;;;;;89.00;69.90;;;7.20;99.90;;;;;;5088296;28;20381;-80
2021/11/04 06:24:58;;;;;;;85.87;68.17;;;7.20;99.90;;;;;;5086503;28;20411;-80
2021/11/04 06:27:24;;;;;;;93.47;70.30;;;7.20;99.90;;;;;;5088196;28;20817;-79
2021/11/04 06:29:50;;;;;;;91.15;69.43;;;7.20;99.90;;;;;;5088013;28;20372;-79
2021/11/04 06:32:16;;;;;;;92.80;71.47;;;7.30;99.90;;;;;;5088515;28;20430;-79
2021/11/04 06:34:42;;;;;;;92.05;70.03;;;7.30;99.90;;;;;;5087025;28;20408;-79
2021/11/04 06:37:07;;;;;;;92.68;70.50;;;7.20;99.90;;;;;;5085865;28;20384;-79
2021/11/04 06:39:33;;;;;;;89.43;71.03;;;7.20;99.90;;;;;;5086486;28;20996;-79
2021/11/04 06:41:58;;;;;;;92.93;71.95;;;7.30;99.90;;;;;;5086659;28;20376;-79
2021/11/04 06:44:24;;;;;;;97.80;72.40;;;7.40;99.90;;;;;;5084867;28;20869;-79
2021/11/04 06:46:50;;;;;;;94.70;72.63;;;7.30;99.90;;;;;;5086539;28;20404;-78
2021/11/04 06:49:17;;;;;;;99.10;73.33;;;7.30;99.90;;;;;;5086081;28;20368;-79
2021/11/04 06:51:47;;;;;;;97.20;72.63;;;7.30;99.90;;;;;;5086017;28;20468;-79
2021/11/04 06:54:14;;;;;;;97.87;73.83;;;7.40;99.90;;;;;;5086183;28;20404;-79
2021/11/04 06:56:45;;;;;;;103.00;75.47;;;7.40;99.90;;;;;;5087065;28;20365;-78
2021/11/04 06:59:20;;;;;;;99.93;74.28;;;7.40;99.90;;;;;;5088074;28;20376;-79
2021/11/04 07:01:54;;;;;;;102.80;75.10;;;7.40;99.90;;;;;;5086471;28;20391;-80
2021/11/04 07:04:42;;;;;;;102.13;75.75;;;7.50;99.90;;;;;;5087624;28;20761;-80
2021/11/04 07:07:12;;;;;;;101.55;75.78;;;7.40;99.90;;;;;;5087759;28;20385;-79
2021/11/04 07:09:40;;;;;;;101.82;75.80;;;7.40;99.90;;;;;;5087434;28;20382;-78
2021/11/04 07:12:08;;;;;;;100.10;75.03;;;7.40;99.90;;;;;;5087601;28;20373;-79
2021/11/04 07:14:36;;;;;;;102.93;75.80;;;7.50;99.90;;;;;;5087502;28;20473;-79
2021/11/04 07:17:04;;;;;;;99.55;74.95;;;7.40;99.90;;;;;;5087519;28;20373;-79
2021/11/04 07:19:30;;;;;;;103.32;76.90;;;7.40;99.90;;;;;;5087496;28;20376;-79
2021/11/04 07:22:22;;;;;;;106.43;76.63;;;7.30;99.90;;;;;;5084006;28;20392;-79
2021/11/04 07:25:14;;;;;;;101.57;75.85;;;7.30;99.90;;;;;;5087500;28;20424;-79
2021/11/04 07:28:13;;;;;;;108.43;78.65;;;7.30;99.90;;;;;;5085788;28;20389;-80
2021/11/04 07:30:40;;;;;;;102.32;77.15;;;7.30;99.90;;;;;;5084369;28;20396;-78
2021/11/04 07:33:06;;;;;;;103.80;76.18;;;7.40;99.90;;;;;;5087350;28;20456;-80
2021/11/04 07:35:34;;;;;;;100.45;75.00;;;7.50;99.90;;;;;;5085792;28;20400;-79
2021/11/04 07:38:01;;;;;;;98.53;75.25;;;7.50;99.90;;;;;;5086571;28;20393;-79
2021/11/04 07:40:28;;;;;;;103.93;77.22;;;7.50;99.90;;;;;;5086251;28;20800;-79
2021/11/04 07:42:55;;;;;;;101.07;76.82;;;7.50;99.90;;;;;;5087273;28;20734;-80
2021/11/04 07:45:21;;;;;;;113.57;79.73;;;7.50;99.90;;;;;;5086788;28;20452;-79
2021/11/04 07:47:48;;;;;;;104.35;77.05;;;7.50;99.90;;;;;;5086664;28;20402;-80
2021/11/04 07:50:18;;;;;;;100.00;75.10;;;7.60;99.90;;;;;;5086878;28;20372;-79
2021/11/04 07:52:45;;;;;;;100.85;74.53;;;7.50;99.90;;;;;;5072545;28;20422;-79
2021/11/04 07:55:11;;;;;;;104.43;77.05;;;7.50;99.90;;;;;;5092230;28;20407;-80
2021/11/04 07:57:38;;;;;;;105.10;78.85;;;7.50;99.90;;;;;;5092803;28;20383;-78
2021/11/04 08:00:12;;;;;;;103.40;76.70;;;7.50;99.90;;;;;;5090997;28;20378;-79
2021/11/04 08:02:41;;;;;;;102.88;76.15;;;7.50;99.90;;;;;;5091694;28;20402;-79
2021/11/04 08:05:13;;;;;;;101.88;75.68;;;7.40;99.90;;;;;;5091410;28;20408;-80
2021/11/04 08:07:40;;;;;;;99.43;75.07;;;7.50;99.90;;;;;;5091784;28;20445;-79
2021/11/04 08:10:08;;;;;;;108.43;80.68;;;7.40;99.90;;;;;;5092711;27;20407;-79
2021/11/04 08:12:35;;;;;;;103.70;76.40;;;7.40;99.90;;;;;;5092890;28;20379;-79
2021/11/04 08:15:03;;;;;;;101.95;76.70;;;7.40;99.90;;;;;;5093272;28;20498;-79
2021/11/04 08:17:29;;;;;;;107.82;76.28;;;7.50;99.90;;;;;;5091909;28;20749;-79
2021/11/04 08:19:54;;;;;;;102.15;75.80;;;7.40;99.90;;;;;;5093372;28;20377;-79
2021/11/04 08:22:20;;;;;;;100.35;74.20;;;7.40;99.90;;;;;;5092295;28;20457;-79
2021/11/04 08:24:47;;;;;;;100.45;73.55;;;7.40;99.90;;;;;;5091084;27;20381;-80
2021/11/04 08:27:14;;;;;;;107.53;75.82;;;7.50;99.90;;;;;;5091415;28;20457;-80
2021/11/04 08:29:40;;;;;;;102.82;75.32;;;7.50;99.90;;;;;;5092838;27;20479;-79
2021/11/04 08:32:08;;;;;;;101.90;74.77;;;7.40;99.90;;;;;;5089290;28;20969;-79
2021/11/04 08:34:34;;;;;;;103.70;76.35;;;7.50;99.90;;;;;;5107772;27;20406;-79
2021/11/04 08:37:00;;;;;;;101.32;73.38;;;7.50;99.90;;;;;;5092336;28;20981;-79
2021/11/04 08:39:26;;;;;;;100.55;75.53;;;7.50;99.90;;;;;;5092861;28;20382;-78
2021/11/04 08:41:52;;;;;;;94.45;72.68;;;7.50;99.90;;;;;;5086040;28;20916;-79
2021/11/04 08:44:17;;;;;;;97.03;71.57;;;7.60;99.90;;;;;;5084187;28;20461;-79
2021/11/04 08:46:43;;;;;;;103.60;72.75;;;7.60;99.90;;;;;;5084716;28;20380;-79
2021/11/04 08:49:09;;;;;;;99.82;72.20;;;7.50;99.90;;;;;;5085847;28;20472;-79
2021/11/04 08:51:34;;;;;;;100.83;74.10;;;7.60;99.90;;;;;;5085021;28;20467;-79
2021/11/04 08:54:00;;;;;;;100.13;72.75;;;7.50;99.90;;;;;;5083306;28;20749;-79
2021/11/04 08:56:26;;;;;;;97.82;72.43;;;7.60;99.90;;;;;;5085101;28;20637;-79
2021/11/04 08:58:52;;;;;;;99.95;73.18;;;7.60;99.90;;;;;;5083001;28;20396;-79
2021/11/04 09:01:18;;;;;;;103.05;75.90;;;7.60;99.90;;;;;;5083273;28;20376;-78
2021/11/04 09:03:44;;;;;;;106.63;75.77;;;7.60;99.90;;;;;;5083077;28;20456;-79
2021/11/04 09:06:09;;;;;;;106.50;76.90;;;7.60;99.90;;;;;;5082168;28;20387;-79
2021/11/04 09:08:35;;;;;;;109.28;77.88;;;7.50;99.90;;;;;;5083070;28;20391;-79
2021/11/04 09:11:01;;;;;;;113.53;78.05;;;7.50;99.90;;;;;;5081684;28;20396;-79
2021/11/04 09:13:26;;;;;;;114.20;78.27;;;7.40;99.90;;;;;;5084058;28;20449;-79
2021/11/04 09:15:52;;;;;;;113.17;78.47;;;7.40;99.90;;;;;;5085059;28;20850;-81
2021/11/04 09:18:19;;;;;;;116.60;80.07;;;7.50;99.90;;;;;;5083223;28;20422;-81
2021/11/04 09:20:45;;;;;;;119.00;79.95;;;7.40;99.90;;;;;;5085769;28;20735;-80
2021/11/04 09:23:10;;;;;;;115.25;80.40;;;7.40;99.90;;;;;;5084765;28;20377;-80
2021/11/04 09:25:36;;;;;;;116.05;79.82;;;7.40;99.90;;;;;;5084970;28;20828;-79
2021/11/04 09:28:03;;;;;;;121.07;80.72;;;7.30;99.90;;;;;;5083779;28;20389;-80
2021/11/04 09:30:29;;;;;;;121.78;81.55;;;7.20;99.90;;;;;;5080577;28;20501;-79
2021/11/04 09:32:55;;;;;;;121.68;79.90;;;7.30;99.90;;;;;;5083382;28;20762;-79
2021/11/04 09:35:22;;;;;;;116.93;78.55;;;7.30;99.90;;;;;;5083214;28;20426;-80
2021/11/04 09:37:48;;;;;;;117.38;80.20;;;7.30;99.90;;;;;;5084092;28;20414;-80
2021/11/04 09:40:16;;;;;;;125.43;80.53;;;7.20;99.90;;;;;;5084534;28;20376;-80
2021/11/04 09:42:42;;;;;;;132.07;82.68;;;7.20;99.90;;;;;;5083332;28;20477;-80
2021/11/04 09:45:08;;;;;;;120.20;79.80;;;7.30;99.90;;;;;;5085879;28;20447;-80
2021/11/04 09:47:34;;;;;;;118.13;79.30;;;7.30;99.90;;;;;;5087296;28;20910;-80
2021/11/04 09:50:08;;;;;;;108.00;73.93;;;7.30;99.90;;;;;;5088027;28;20455;-80
2021/11/04 09:52:35;;;;;;;109.82;74.32;;;7.20;99.90;;;;;;5080729;28;20735;-80
2021/11/04 09:55:06;;;;;;;111.03;74.43;;;7.20;99.90;;;;;;5087103;28;20434;-79
2021/11/04 09:57:32;;;;;;;110.57;73.40;;;7.20;99.90;;;;;;5094053;28;20391;-81
2021/11/04 09:59:58;;;;;;;107.63;71.47;;;7.20;99.90;;;;;;5095259;28;20447;-80
2021/11/04 10:02:27;;;;;;;101.57;69.32;;;7.10;99.90;;;;;;5096075;28;20384;-79
2021/11/04 10:05:01;;;;;;;110.72;72.63;;;7.10;99.90;;;;;;5095991;28;20388;-81
2021/11/04 10:07:27;;;;;;;104.03;70.60;;;7.10;99.90;;;;;;5096084;28;20367;-80
2021/11/04 10:10:01;;;;;;;106.85;72.40;;;7.10;99.90;;;;;;5096155;28;20407;-80
2021/11/04 10:12:28;;;;;;;106.30;71.22;;;7.20;99.90;;;;;;5095911;28;20460;-81
2021/11/04 10:14:55;;;;;;;109.10;72.63;;;7.20;99.90;;;;;;5096312;28;20453;-81
2021/11/04 10:17:28;;;;;;;98.15;67.25;;;7.20;99.90;;;;;;5095830;28;20378;-80
2021/11/04 10:19:55;;;;;;;98.82;67.32;;;7.20;99.90;;;;;;5111700;27;20468;-81
2021/11/04 10:22:27;;;;;;;104.93;67.72;;;7.20;99.90;;;;;;5097743;28;20386;-80
2021/11/04 10:24:54;;;;;;;103.57;68.93;;;7.20;99.90;;;;;;5096222;28;20380;-80
2021/11/04 10:27:31;;;;;;;103.10;69.40;;;7.10;99.90;;;;;;5090754;28;20596;-80
2021/11/04 10:29:57;;;;;;;99.93;66.80;;;7.10;99.90;;;;;;5087447;28;20384;-80
2021/11/04 10:32:33;;;;;;;99.97;66.32;;;7.10;99.90;;;;;;5088509;28;20431;-81
2021/11/04 10:35:10;;;;;;;99.78;67.13;;;7.10;99.90;;;;;;5097861;28;20499;-80
2021/11/04 10:37:44;;;;;;;93.25;64.28;;;7.00;99.90;;;;;;5092785;28;20426;-80
2021/11/04 10:40:19;;;;;;;92.47;64.55;;;7.10;99.90;;;;;;5091852;28;20949;-79
2021/11/04 10:42:58;;;;;;;96.70;62.43;;;7.10;99.90;;;;;;5090185;28;20447;-81
2021/11/04 10:45:26;;;;;;;95.72;63.33;;;7.00;99.90;;;;;;5088619;28;20449;-81
2021/11/04 10:48:15;;;;;;;99.97;64.93;;;7.10;99.90;;;;;;5088448;28;20909;-79
2021/11/04 10:50:43;;;;;;;92.30;61.58;;;7.10;99.90;;;;;;5090624;28;20479;-80
2021/11/04 10:53:13;;;;;;;94.13;63.67;;;7.10;99.90;;;;;;5088796;28;20407;-82
2021/11/04 10:55:39;;;;;;;87.80;60.53;;;7.20;99.90;;;;;;5088698;28;20901;-79
2021/11/04 10:58:25;;;;;;;80.57;58.05;;;7.20;99.90;;;;;;5082520;28;20526;-80
2021/11/04 11:00:51;;;;;;;85.28;58.95;;;7.20;99.90;;;;;;5096159;28;20442;-81
2021/11/04 11:03:17;;;;;;;76.70;55.63;;;7.10;99.90;;;;;;5097209;28;20964;-80
2021/11/04 11:05:43;;;;;;;84.43;57.22;;;7.10;99.90;;;;;;5096910;28;20379;-81
2021/11/04 11:08:10;;;;;;;74.63;53.83;;;7.10;99.90;;;;;;5097533;28;20434;-80
2021/11/04 11:10:37;;;;;;;73.27;54.13;;;7.20;99.90;;;;;;5097528;28;20384;-79
2021/11/04 11:13:04;;;;;;;66.38;49.58;;;7.20;99.90;;;;;;5097365;28;20422;-81
2021/11/04 11:15:32;;;;;;;71.65;52.40;;;7.20;99.90;;;;;;5097065;28;20401;-81
2021/11/04 11:17:59;;;;;;;69.55;51.45;;;7.20;99.90;;;;;;5095970;28;20894;-79
2021/11/04 11:20:26;;;;;;;63.03;47.80;;;7.20;99.90;;;;;;5096567;28;20375;-81
2021/11/04 11:22:52;;;;;;;66.85;49.85;;;7.30;99.90;;;;;;5103499;28;20384;-81
2021/11/04 11:25:18;;;;;;;68.18;50.60;;;7.30;99.90;;;;;;5096089;28;20980;-82
2021/11/04 11:27:47;;;;;;;69.38;50.00;;;7.30;99.90;;;;;;5097322;27;20386;-81
2021/11/04 11:30:13;;;;;;;71.17;50.83;;;7.30;99.90;;;;;;5095077;28;20400;-81
2021/11/04 11:32:39;;;;;;;65.60;48.78;;;7.40;99.90;;;;;;5094961;28;20754;-80
2021/11/04 11:35:16;;;;;;;67.07;48.03;;;7.40;99.90;;;;;;5097117;28;20407;-81
2021/11/04 11:38:06;;;;;;;62.03;46.28;;;7.40;99.90;;;;;;5099858;28;20924;-81
2021/11/04 11:40:33;;;;;;;60.70;45.13;;;7.50;99.90;;;;;;5097145;28;20401;-81
2021/11/04 11:43:03;;;;;;;66.25;46.38;;;7.50;99.90;;;;;;5089649;28;20806;-80
2021/11/04 11:45:31;;;;;;;58.80;42.97;;;7.50;99.90;;;;;;5089460;28;20788;-80
2021/11/04 11:48:20;;;;;;;56.50;42.00;;;7.60;99.90;;;;;;5089528;28;20376;-80
2021/11/04 11:50:47;;;;;;;64.45;44.33;;;7.60;99.90;;;;;;5089633;28;20380;-81
2021/11/04 11:53:20;;;;;;;61.93;43.63;;;7.60;99.90;;;;;;5087818;28;20431;-81
2021/11/04 11:55:47;;;;;;;62.35;44.42;;;7.60;99.90;;;;;;5088907;28;21084;-80
2021/11/04 11:58:13;;;;;;;57.78;43.00;;;7.60;99.90;;;;;;5087836;28;20460;-80
2021/11/04 12:00:59;;;;;;;58.43;40.67;;;7.60;99.90;;;;;;5087740;28;20380;-79
2021/11/04 12:06:17;;;;;;;52.08;39.75;;;7.60;99.90;;;;;;5089048;28;20388;-81
2021/11/04 12:08:50;;;;;;;57.80;39.93;;;7.70;99.90;;;;;;5089283;28;20393;-80
2021/11/04 12:11:38;;;;;;;57.78;39.65;;;7.60;99.90;;;;;;5088821;28;20400;-80
2021/11/04 12:14:18;;;;;;;51.58;37.78;;;7.60;99.90;;;;;;5087427;28;20388;-80
2021/11/04 12:17:08;;;;;;;44.53;33.53;;;7.60;99.90;;;;;;5088614;28;20452;-79
2021/11/04 12:19:49;;;;;;;48.60;35.38;;;7.60;99.90;;;;;;5087454;28;20387;-81
2021/11/04 12:22:18;;;;;;;44.83;34.28;;;7.70;99.90;;;;;;5088813;28;20376;-81
2021/11/04 12:24:49;;;;;;;46.05;33.78;;;7.70;99.90;;;;;;5088165;28;20395;-81
2021/11/04 12:27:18;;;;;;;41.97;32.72;;;7.70;99.90;;;;;;5090887;28;20475;-81
2021/11/04 12:29:49;;;;;;;44.90;33.05;;;7.80;99.90;;;;;;5079326;28;20754;-81
2021/11/04 12:32:21;;;;;;;44.55;33.10;;;7.70;99.90;;;;;;5087328;28;20383;-81
2021/11/04 12:35:13;;;;;;;41.75;31.45;;;7.80;99.90;;;;;;5104783;28;20433;-80
2021/11/04 12:37:39;;;;;;;42.22;31.83;;;7.80;99.90;;;;;;5083615;28;21051;-81
2021/11/04 12:40:07;;;;;;;45.75;33.53;;;7.90;99.90;;;;;;5087198;28;20376;-81
2021/11/04 12:42:33;;;;;;;46.38;34.45;;;7.80;99.90;;;;;;5086098;28;20388;-81